createdAt,value
2019-04-23T00:00:56.456Z,99515.83
2019-04-23T00:03:25.860Z,99508.03
2019-04-23T00:05:59.491Z,99512.49
2019-04-23T00:08:39.690Z,99506.89
2019-04-23T00:10:59.135Z,99501.25
2019-04-23T00:13:30.506Z,99500.83
2019-04-23T00:16:18.689Z,99493.80
2019-04-23T00:18:49.757Z,99490.66
2019-04-23T00:21:43.054Z,99489.56
2019-04-23T00:24:34.807Z,99481.17
2019-04-23T00:27:06.224Z,99480.90
2019-04-23T00:29:28.050Z,99467.47
2019-04-23T00:31:59.593Z,99468.94
2019-04-23T00:34:37.524Z,99469.47
2019-04-23T00:37:06.509Z,99469.55
2019-04-23T00:39:33.891Z,99464.38
2019-04-23T00:42:08.537Z,99466.91
2019-04-23T00:44:40.110Z,99461.88
2019-04-23T00:47:06.985Z,99464.32
2019-04-23T00:49:40.198Z,99470.94
2019-04-23T00:52:14.512Z,99468.44
2019-04-23T00:54:41.120Z,99461.89
2019-04-23T00:59:44.621Z,99462.45
2019-04-23T01:02:13.195Z,99457.16
2019-04-23T01:04:46.073Z,99453.30
2019-04-23T01:07:11.339Z,99455.95
2019-04-23T01:09:56.126Z,99456.85
2019-04-23T01:12:30.110Z,99453.34
2019-04-23T01:14:48.677Z,99448.12
2019-04-23T01:17:26.185Z,99443.31
2019-04-23T01:19:54.721Z,99444.30
2019-04-23T01:22:08.682Z,99443.18
2019-04-23T01:25:13.515Z,99436.01
2019-04-23T01:28:09.395Z,99441.92
2019-04-23T01:30:40.934Z,99439.89
2019-04-23T01:33:16.058Z,99425.91
2019-04-23T01:35:39.677Z,99424.20
2019-04-23T01:38:11.918Z,99423.46
2019-04-23T01:40:40.606Z,99424.84
2019-04-23T01:43:16.474Z,99427.63
2019-04-23T01:45:48.090Z,99422.91
2019-04-23T01:48:12.879Z,99428.36
2019-04-23T01:53:23.309Z,99422.48
2019-04-23T01:55:54.440Z,99427.95
2019-04-23T01:58:31.843Z,99421.56
2019-04-23T02:00:53.228Z,99421.74
2019-04-23T02:03:21.504Z,99426.58
2019-04-23T02:05:55.596Z,99417.81
2019-04-23T02:08:42.034Z,99420.93
2019-04-23T02:10:58.740Z,99420.06
2019-04-23T02:13:32.394Z,99417.39
2019-04-23T02:16:12.903Z,99414.72
2019-04-23T02:18:32.159Z,99408.45
2019-04-23T02:26:10.814Z,99399.25
2019-04-23T02:28:49.538Z,99398.36
2019-04-23T02:36:20.816Z,99394.00
2019-04-23T02:38:54.542Z,99386.92
2019-04-23T02:41:35.169Z,99387.37
2019-04-23T02:43:59.179Z,99384.34
2019-04-23T02:46:43.853Z,99373.00
2019-04-23T02:48:56.622Z,99373.89
2019-04-23T02:51:27.530Z,99370.77
2019-04-23T02:54:04.590Z,99372.90
2019-04-23T02:59:06.191Z,99365.91
2019-04-23T03:09:23.874Z,99352.89
2019-04-23T03:12:07.961Z,99354.66
2019-04-23T03:14:09.582Z,99358.20
2019-04-23T03:19:31.910Z,99341.20
2019-04-23T03:22:15.295Z,99340.30
2019-04-23T03:27:28.768Z,99336.78
2019-04-23T03:34:36.749Z,99314.14
2019-04-23T03:35:19.459Z,99316.69
2019-04-23T03:42:47.048Z,99306.34
2019-04-23T03:45:25.657Z,99306.48
2019-04-23T03:47:48.141Z,99301.51
2019-04-23T03:50:15.481Z,99307.25
2019-04-23T03:52:39.216Z,99307.25
2019-04-23T03:55:12.616Z,99306.17
2019-04-23T03:57:38.312Z,99308.02
2019-04-23T04:00:24.986Z,99306.38
2019-04-23T04:02:48.498Z,99311.21
2019-04-23T04:05:17.299Z,99303.67
2019-04-23T04:07:47.009Z,99305.19
2019-04-23T04:12:39.646Z,99303.90
2019-04-23T04:15:35.637Z,99308.15
2019-04-23T04:17:55.620Z,99307.86
2019-04-23T04:20:29.031Z,99307.83
2019-04-23T04:23:00.445Z,99301.33
2019-04-23T04:28:08.467Z,99295.08
2019-04-23T04:40:33.091Z,99302.68
2019-04-23T04:43:11.290Z,99307.06
2019-04-23T04:45:42.487Z,99304.52
2019-04-23T04:50:25.961Z,99303.81
2019-04-23T04:53:12.446Z,99299.91
2019-04-23T04:55:37.569Z,99301.69
2019-04-23T04:57:58.143Z,99300.33
2019-04-23T05:00:42.550Z,99297.23
2019-04-23T05:03:19.458Z,99303.77
2019-04-23T05:08:11.300Z,99293.60
2019-04-23T05:13:22.207Z,99296.95
2019-04-23T05:15:39.144Z,99292.15
2019-04-23T05:18:31.764Z,99285.41
2019-04-23T05:21:01.819Z,99288.72
2019-04-23T05:23:45.908Z,99287.88
2019-04-23T05:26:20.963Z,99293.45
2019-04-23T05:31:18.707Z,99291.96
2019-04-23T05:33:57.206Z,99285.77
2019-04-23T05:41:36.491Z,99283.20
2019-04-23T05:43:57.361Z,99277.49
2019-04-23T05:46:29.814Z,99269.84
2019-04-23T05:51:33.501Z,99277.13
2019-04-23T05:53:58.240Z,99262.94
2019-04-23T05:56:29.165Z,99267.20
2019-04-23T05:59:06.174Z,99274.08
2019-04-23T06:07:06.058Z,99264.33
2019-04-23T06:09:25.224Z,99266.25
2019-04-23T06:11:55.495Z,99261.75
2019-04-23T06:22:07.005Z,99263.99
2019-04-23T06:24:24.942Z,99250.19
2019-04-23T06:29:25.651Z,99240.34
2019-04-23T06:31:48.868Z,99247.61
2019-04-23T06:34:26.509Z,99234.66
2019-04-23T06:36:50.785Z,99234.98
2019-04-23T06:39:26.017Z,99233.94
2019-04-23T06:41:55.173Z,99227.09
2019-04-23T06:49:30.485Z,99223.91
2019-04-23T06:54:36.304Z,99214.13
2019-04-23T06:59:33.559Z,99208.52
2019-04-23T07:02:10.016Z,99219.64
2019-04-23T07:04:43.815Z,99203.16
2019-04-23T07:09:35.239Z,99196.03
2019-04-23T07:12:08.504Z,99192.97
2019-04-23T07:14:44.134Z,99196.02
2019-04-23T07:19:42.336Z,99191.17
2019-04-23T07:24:41.983Z,99195.05
2019-04-23T07:27:17.532Z,99182.62
2019-04-23T07:29:48.287Z,99184.44
2019-04-23T07:32:11.014Z,99161.08
2019-04-23T07:34:49.804Z,99162.39
2019-04-23T07:37:32.771Z,99153.27
2019-04-23T07:40:09.897Z,99153.92
2019-04-23T07:48:24.297Z,99148.51
2019-04-23T07:50:52.038Z,99135.35
2019-04-23T07:53:48.224Z,99136.75
2019-04-23T07:56:03.790Z,99129.61
2019-04-23T08:01:02.069Z,99116.21
2019-04-23T08:03:31.517Z,99111.38
2019-04-23T08:06:01.033Z,99112.25
2019-04-23T08:08:30.221Z,99101.69
2019-04-23T08:16:21.841Z,99105.42
2019-04-23T08:18:45.560Z,99113.56
2019-04-23T08:21:09.820Z,99107.38
2019-04-23T08:23:56.899Z,99104.00
2019-04-23T08:31:40.264Z,99098.85
2019-04-23T08:34:18.625Z,99094.09
2019-04-23T08:36:44.358Z,99093.15
2019-04-23T08:39:11.546Z,99090.53
2019-04-23T08:41:44.607Z,99097.22
2019-04-23T08:44:21.517Z,99081.06
2019-04-23T08:47:01.015Z,99093.73
2019-04-23T08:49:31.273Z,99085.20
2019-04-23T08:52:00.306Z,99089.87
2019-04-23T08:54:41.606Z,99080.56
2019-04-23T08:59:34.796Z,99072.02
2019-04-23T09:04:30.974Z,99050.84
2019-04-23T09:07:09.633Z,99069.30
2019-04-23T09:09:34.683Z,99061.61
2019-04-23T09:11:57.937Z,99059.50
2019-04-23T09:14:32.159Z,99062.38
2019-04-23T09:17:06.866Z,99059.99
2019-04-23T09:22:08.663Z,99045.81
2019-04-23T09:24:32.923Z,99045.24
2019-04-23T09:27:09.694Z,99039.14
2019-04-23T09:29:45.785Z,99031.28
2019-04-23T09:35:08.577Z,99024.80
2019-04-23T09:38:04.030Z,99025.25
2019-04-23T09:43:33.279Z,99007.50
2019-04-23T09:48:49.279Z,99006.69
2019-04-23T09:53:47.171Z,98991.84
2019-04-23T09:56:14.184Z,98988.27
2019-04-23T09:58:43.257Z,98988.36
2019-04-23T10:01:25.999Z,98979.44
2019-04-23T10:03:40.587Z,98977.72
2019-04-23T10:06:11.709Z,98996.78
2019-04-23T10:08:40.516Z,98994.67
2019-04-23T10:11:07.459Z,98983.16
2019-04-23T10:13:36.702Z,98986.64
2019-04-23T10:16:06.861Z,98975.34
2019-04-23T10:18:37.374Z,98975.10
2019-04-23T10:21:07.781Z,98976.62
2019-04-23T10:23:37.156Z,98975.10
2019-04-23T10:26:07.852Z,98975.18
2019-04-23T10:28:53.877Z,98965.03
2019-04-23T10:31:24.939Z,98959.42
2019-04-23T10:33:55.821Z,98962.73
2019-04-23T10:36:27.697Z,98958.76
2019-04-23T10:39:03.500Z,98945.55
2019-04-23T10:41:28.019Z,98946.81
2019-04-23T10:44:04.812Z,98943.48
2019-04-23T10:47:23.375Z,98945.40
2019-04-23T10:52:36.343Z,98937.45
2019-04-23T10:55:00.802Z,98946.21
2019-04-23T10:57:20.749Z,98937.27
2019-04-23T11:00:08.910Z,98942.37
2019-04-23T11:05:22.581Z,98957.84
2019-04-23T11:07:30.910Z,98943.98
2019-04-23T11:12:46.228Z,98956.77
2019-04-23T11:17:59.175Z,98941.01
2019-04-23T11:25:36.737Z,98934.00
2019-04-23T11:28:02.813Z,98929.97
2019-04-23T11:30:31.830Z,98927.13
2019-04-23T11:33:10.094Z,98925.70
2019-04-23T11:35:39.966Z,98926.62
2019-04-23T11:40:34.287Z,98907.95
2019-04-23T11:45:44.737Z,98916.76
2019-04-23T11:51:10.434Z,98902.13
2019-04-23T11:58:14.975Z,98899.31
2019-04-23T12:03:19.426Z,98895.69
2019-04-23T12:06:25.443Z,98899.70
2019-04-23T12:09:09.939Z,98887.27
2019-04-23T12:11:53.848Z,98902.54
2019-04-23T12:14:42.066Z,98898.06
2019-04-23T12:17:25.997Z,98886.78
2019-04-23T12:22:17.868Z,98887.31
2019-04-23T12:25:02.287Z,98886.78
2019-04-23T12:27:30.646Z,98884.62
2019-04-23T12:29:50.734Z,98880.10
2019-04-23T12:32:41.815Z,98882.68
2019-04-23T12:37:45.657Z,98876.59
2019-04-23T12:40:23.541Z,98873.91
2019-04-23T12:47:56.750Z,98857.00
2019-04-23T12:50:42.454Z,98853.20
2019-04-23T12:52:52.405Z,98852.63
2019-04-23T12:55:27.748Z,98848.52
2019-04-23T12:57:52.303Z,98840.70
2019-04-23T13:00:27.179Z,98843.89
2019-04-23T13:13:11.713Z,98817.98
2019-04-23T13:15:29.366Z,98811.25
2019-04-23T13:20:33.571Z,98805.52
2019-04-23T13:23:13.534Z,98802.95
2019-04-23T13:28:21.680Z,98796.95
2019-04-23T13:30:56.536Z,98791.94
2019-04-23T13:36:01.677Z,98794.39
2019-04-23T13:38:34.945Z,98782.27
2019-04-23T13:41:01.786Z,98794.39
2019-04-23T13:46:06.906Z,98800.23
2019-04-23T13:48:20.050Z,98787.03
2019-04-23T13:54:17.081Z,98774.19
2019-04-23T13:56:03.703Z,98780.31
2019-04-23T13:58:34.450Z,98782.14
2019-04-23T14:03:40.616Z,98762.06
2019-04-23T14:31:36.587Z,98749.58
2019-04-23T14:41:26.766Z,98753.50
2019-04-23T14:49:22.089Z,98757.41
2019-04-23T14:51:49.729Z,98747.28
2019-04-23T14:54:34.392Z,98747.98
2019-04-23T14:56:58.844Z,98742.23
2019-04-23T14:59:13.530Z,98743.86
2019-04-23T15:01:55.798Z,98743.34
2019-04-23T15:04:28.963Z,98733.92
2019-04-23T15:07:07.555Z,98741.50
2019-04-23T15:12:11.909Z,98740.30
2019-04-23T15:14:33.932Z,98734.07
2019-04-23T15:24:40.887Z,98733.94
2019-04-23T15:29:36.816Z,98722.92
2019-04-23T15:34:45.471Z,98721.22
2019-04-23T15:37:44.274Z,98718.80
2019-04-23T15:39:56.624Z,98720.38
2019-04-23T15:42:19.627Z,98711.70
2019-04-23T15:44:49.043Z,98708.25
2019-04-23T15:49:51.343Z,98707.03
2019-04-23T15:52:21.097Z,98711.20
2019-04-23T15:57:41.672Z,98700.69
2019-04-23T15:59:55.897Z,98701.05
2019-04-23T16:01:57.585Z,98715.84
2019-04-23T16:04:27.609Z,98703.50
2019-04-23T16:06:56.879Z,98700.05
2019-04-23T16:10:04.313Z,98701.36
2019-04-23T16:12:22.263Z,98692.31
2019-04-23T16:17:32.661Z,98704.28
2019-04-23T16:22:39.716Z,98706.09
2019-04-23T16:25:13.350Z,98709.02
2019-04-23T16:27:50.443Z,98705.13
2019-04-23T16:38:36.367Z,98713.55
2019-04-23T16:43:38.299Z,98704.74
2019-04-23T16:48:35.359Z,98707.30
2019-04-23T16:51:13.102Z,98712.55
2019-04-23T16:56:04.183Z,98707.02
2019-04-23T16:58:33.510Z,98708.55
2019-04-23T17:01:03.826Z,98708.64
2019-04-23T17:03:33.387Z,98705.17
2019-04-23T17:06:08.647Z,98705.44
2019-04-23T17:11:09.717Z,98700.74
2019-04-23T17:13:32.995Z,98703.39
2019-04-23T17:21:01.928Z,98703.61
2019-04-23T17:26:26.098Z,98712.34
2019-04-23T17:28:35.992Z,98703.27
2019-04-23T17:33:43.912Z,98704.41
2019-04-23T17:39:36.435Z,98714.13
2019-04-23T17:42:31.000Z,98706.41
2019-04-23T17:50:14.332Z,98711.23
2019-04-23T17:52:42.034Z,98721.45
2019-04-23T17:55:13.524Z,98716.33
2019-04-23T17:57:43.678Z,98712.41
2019-04-23T18:02:55.665Z,98716.27
2019-04-23T18:05:29.157Z,98715.08
2019-04-23T18:08:11.774Z,98720.72
2019-04-23T18:12:53.220Z,98716.84
2019-04-23T18:15:15.462Z,98723.47
2019-04-23T18:20:37.540Z,98715.29
2019-04-23T18:23:09.501Z,98728.99
2019-04-23T18:25:51.592Z,98720.67
2019-04-23T18:28:13.540Z,98725.23
2019-04-23T18:31:46.928Z,98731.20
2019-04-23T18:34:16.812Z,98729.63
2019-04-23T18:36:29.505Z,98732.03
2019-04-23T18:39:06.338Z,98732.39
2019-04-23T18:41:33.507Z,98735.47
2019-04-23T18:46:42.144Z,98729.78
2019-04-23T18:48:59.732Z,98739.44
2019-04-23T18:51:40.454Z,98735.62
2019-04-23T18:54:08.498Z,98737.81
2019-04-23T18:56:58.306Z,98735.43
2019-04-23T18:59:16.230Z,98736.03
2019-04-23T19:02:20.646Z,98742.91
2019-04-23T19:05:03.441Z,98742.33
2019-04-23T19:13:07.386Z,98742.91
2019-04-23T19:15:37.920Z,98744.24
2019-04-23T19:18:00.431Z,98748.05
2019-04-23T19:23:21.064Z,98743.00
2019-04-23T19:25:49.879Z,98750.34
2019-04-23T19:28:30.742Z,98739.09
2019-04-23T19:30:55.706Z,98745.95
2019-04-23T19:33:38.280Z,98747.09
2019-04-23T19:36:11.347Z,98748.79
2019-04-23T19:38:36.429Z,98749.50
2019-04-23T19:41:01.949Z,98751.61
2019-04-23T19:48:44.111Z,98756.56
2019-04-23T19:51:11.313Z,98757.05
2019-04-23T19:54:01.782Z,98757.43
2019-04-23T19:56:16.797Z,98557.50
2019-04-23T19:58:44.968Z,98753.51
2019-04-23T20:01:15.414Z,98750.45
2019-04-23T20:06:27.374Z,98753.39
2019-04-23T20:09:13.885Z,98756.45
2019-04-23T20:11:13.695Z,98757.02
2019-04-23T20:13:52.701Z,98759.86
2019-04-23T20:16:25.279Z,98755.02
2019-04-23T20:18:52.363Z,98758.05
2019-04-23T20:21:19.519Z,98752.98
2019-04-23T20:34:30.647Z,98755.17
2019-04-23T20:37:02.874Z,98750.60
2019-04-23T20:42:10.774Z,98752.89
2019-04-23T20:44:39.434Z,98750.78
2019-04-23T20:49:42.328Z,98748.67
2019-04-23T20:54:42.111Z,98755.22
2019-04-23T20:57:31.654Z,98749.20
2019-04-23T21:05:11.765Z,98755.09
2019-04-23T21:07:49.057Z,98756.21
2019-04-23T21:10:22.439Z,98749.16
2019-04-23T21:17:55.796Z,98755.61
2019-04-23T21:20:17.774Z,98748.68
2019-04-23T21:22:41.441Z,98756.00
2019-04-23T21:25:08.180Z,98747.78
2019-04-23T21:28:01.987Z,98751.13
2019-04-23T21:30:39.789Z,98747.60
2019-04-23T21:33:10.112Z,98739.59
2019-04-23T21:36:07.183Z,98746.60
2019-04-23T21:38:39.404Z,98743.37
2019-04-23T21:43:57.215Z,98744.02
2019-04-23T21:46:17.087Z,98742.60
2019-04-23T21:51:41.919Z,98744.45
2019-04-23T21:53:49.205Z,98742.71
2019-04-23T21:56:15.550Z,98738.88
2019-04-23T21:58:53.628Z,98741.55
2019-04-23T22:01:36.640Z,98734.15
2019-04-23T22:06:33.519Z,98740.77
2019-04-23T22:08:57.704Z,98737.33
2019-04-23T22:19:13.364Z,98738.94
2019-04-23T22:21:33.061Z,98734.55
2019-04-23T22:24:04.319Z,98732.61
2019-04-23T22:26:35.259Z,98730.41
2019-04-23T22:36:44.545Z,98736.55
2019-04-23T22:39:03.144Z,98735.30
2019-04-23T22:41:43.823Z,98729.69
2019-04-23T22:44:09.494Z,98733.30
2019-04-23T22:46:52.496Z,98725.70
2019-04-23T22:49:20.022Z,98724.92
2019-04-23T22:54:14.010Z,98731.13
2019-04-23T22:56:54.975Z,98732.31
2019-04-23T23:09:28.990Z,98730.91
2019-04-23T23:14:27.044Z,98733.70
2019-04-23T23:16:58.448Z,98726.26
2019-04-23T23:19:55.473Z,98733.94
2019-04-23T23:24:28.612Z,98727.44
2019-04-23T23:26:57.157Z,98522.41
2019-04-23T23:29:33.769Z,98732.45
2019-04-23T23:32:07.924Z,98735.28
2019-04-23T23:34:57.563Z,98730.62
2019-04-23T23:37:09.103Z,98732.34
2019-04-23T23:39:49.664Z,98731.64
2019-04-23T23:42:09.692Z,98729.60
2019-04-23T23:47:29.830Z,98741.36
2019-04-23T23:49:43.847Z,98741.28
2019-04-23T23:52:09.595Z,98734.70
2019-04-23T23:54:43.819Z,98741.67
